sensor_id;sensor_type;location;lat;lon;timestamp;temperature;humidity
32977;DHT22;72327;50.842;4.450;2023-09-12T00:01:41;20.80;99.90
32977;DHT22;72327;50.842;4.450;2023-09-12T00:04:06;20.90;99.90
32977;DHT22;72327;50.842;4.450;2023-09-12T00:06:32;20.90;99.90
32977;DHT22;72327;50.842;4.450;2023-09-12T00:08:57;20.90;99.90
32977;DHT22;72327;50.842;4.450;2023-09-12T00:11:23;20.90;99.90
32977;DHT22;72327;50.842;4.450;2023-09-12T00:13:51;20.90;99.90
32977;DHT22;72327;50.842;4.450;2023-09-12T00:16:16;20.90;99.90
32977;DHT22;72327;50.842;4.450;2023-09-12T00:18:42;20.90;99.90
32977;DHT22;72327;50.842;4.450;2023-09-12T00:21:08;20.90;99.90
32977;DHT22;72327;50.842;4.450;2023-09-12T00:23:33;20.90;99.90
32977;DHT22;72327;50.842;4.450;2023-09-12T00:25:59;20.90;99.90
32977;DHT22;72327;50.842;4.450;2023-09-12T00:28:24;21.00;99.90
32977;DHT22;72327;50.842;4.450;2023-09-12T00:30:51;20.90;99.90
32977;DHT22;72327;50.842;4.450;2023-09-12T00:33:17;20.90;99.90
32977;DHT22;72327;50.842;4.450;2023-09-12T00:35:44;21.00;99.90
32977;DHT22;72327;50.842;4.450;2023-09-12T00:38:09;20.90;99.90
32977;DHT22;72327;50.842;4.450;2023-09-12T00:40:35;20.90;99.90
32977;DHT22;72327;50.842;4.450;2023-09-12T00:43:01;20.90;99.90
32977;DHT22;72327;50.842;4.450;2023-09-12T00:45:26;20.90;99.90
32977;DHT22;72327;50.842;4.450;2023-09-12T00:47:52;20.90;99.90
32977;DHT22;72327;50.842;4.450;2023-09-12T00:50:20;20.90;99.90
32977;DHT22;72327;50.842;4.450;2023-09-12T00:52:47;20.80;99.90
32977;DHT22;72327;50.842;4.450;2023-09-12T00:55:14;20.70;99.90
32977;DHT22;72327;50.842;4.450;2023-09-12T00:57:41;20.70;99.90
32977;DHT22;72327;50.842;4.450;2023-09-12T01:00:07;20.60;99.90
32977;DHT22;72327;50.842;4.450;2023-09-12T01:02:42;20.60;99.90
32977;DHT22;72327;50.842;4.450;2023-09-12T01:05:09;20.50;99.90
32977;DHT22;72327;50.842;4.450;2023-09-12T01:07:38;20.40;99.90
32977;DHT22;72327;50.842;4.450;2023-09-12T01:10:05;20.30;99.90
32977;DHT22;72327;50.842;4.450;2023-09-12T01:12:31;20.30;99.90
32977;DHT22;72327;50.842;4.450;2023-09-12T01:14:57;20.30;99.90
32977;DHT22;72327;50.842;4.450;2023-09-12T01:17:23;20.30;99.90
32977;DHT22;72327;50.842;4.450;2023-09-12T01:19:50;20.20;99.90
32977;DHT22;72327;50.842;4.450;2023-09-12T01:22:21;20.20;99.90
32977;DHT22;72327;50.842;4.450;2023-09-12T01:27:48;20.10;99.90
32977;DHT22;72327;50.842;4.450;2023-09-12T01:30:18;20.00;99.90
32977;DHT22;72327;50.842;4.450;2023-09-12T01:32:46;20.00;99.90
32977;DHT22;72327;50.842;4.450;2023-09-12T01:35:12;19.90;99.90
32977;DHT22;72327;50.842;4.450;2023-09-12T01:37:38;19.90;99.90
32977;DHT22;72327;50.842;4.450;2023-09-12T01:40:04;19.80;99.90
32977;DHT22;72327;50.842;4.450;2023-09-12T01:42:36;19.80;99.90
32977;DHT22;72327;50.842;4.450;2023-09-12T01:45:03;19.70;99.90
32977;DHT22;72327;50.842;4.450;2023-09-12T01:47:30;19.70;99.90
32977;DHT22;72327;50.842;4.450;2023-09-12T01:49:57;19.70;99.90
32977;DHT22;72327;50.842;4.450;2023-09-12T01:52:25;19.70;99.90
32977;DHT22;72327;50.842;4.450;2023-09-12T01:54:52;19.70;99.90
32977;DHT22;72327;50.842;4.450;2023-09-12T01:57:18;19.80;99.90
32977;DHT22;72327;50.842;4.450;2023-09-12T01:59:47;19.90;99.90
32977;DHT22;72327;50.842;4.450;2023-09-12T02:02:14;20.00;99.90
32977;DHT22;72327;50.842;4.450;2023-09-12T02:04:40;20.00;99.90
32977;DHT22;72327;50.842;4.450;2023-09-12T02:07:06;20.10;99.90
32977;DHT22;72327;50.842;4.450;2023-09-12T02:09:31;20.20;99.90
32977;DHT22;72327;50.842;4.450;2023-09-12T02:11:57;20.20;99.90
32977;DHT22;72327;50.842;4.450;2023-09-12T02:14:22;20.20;99.90
32977;DHT22;72327;50.842;4.450;2023-09-12T02:16:48;20.20;99.90
32977;DHT22;72327;50.842;4.450;2023-09-12T02:19:13;20.20;99.90
32977;DHT22;72327;50.842;4.450;2023-09-12T02:21:39;20.30;99.90
32977;DHT22;72327;50.842;4.450;2023-09-12T02:24:05;20.20;99.90
32977;DHT22;72327;50.842;4.450;2023-09-12T02:26:31;20.20;99.90
32977;DHT22;72327;50.842;4.450;2023-09-12T02:29:01;20.20;99.90
32977;DHT22;72327;50.842;4.450;2023-09-12T02:31:27;20.20;99.90
32977;DHT22;72327;50.842;4.450;2023-09-12T02:33:53;20.10;99.90
32977;DHT22;72327;50.842;4.450;2023-09-12T02:36:20;20.10;99.90
32977;DHT22;72327;50.842;4.450;2023-09-12T02:38:45;20.20;99.90
32977;DHT22;72327;50.842;4.450;2023-09-12T02:41:11;20.20;99.90
32977;DHT22;72327;50.842;4.450;2023-09-12T02:43:36;20.10;99.90
32977;DHT22;72327;50.842;4.450;2023-09-12T02:46:02;20.10;99.90
32977;DHT22;72327;50.842;4.450;2023-09-12T02:48:28;20.10;99.90
32977;DHT22;72327;50.842;4.450;2023-09-12T02:50:54;20.10;99.90
32977;DHT22;72327;50.842;4.450;2023-09-12T02:53:19;20.10;99.90
32977;DHT22;72327;50.842;4.450;2023-09-12T02:55:45;20.10;99.90
32977;DHT22;72327;50.842;4.450;2023-09-12T02:58:11;20.20;99.90
32977;DHT22;72327;50.842;4.450;2023-09-12T03:00:38;20.30;99.90
32977;DHT22;72327;50.842;4.450;2023-09-12T03:03:05;20.30;99.90
32977;DHT22;72327;50.842;4.450;2023-09-12T03:05:31;20.20;99.90
32977;DHT22;72327;50.842;4.450;2023-09-12T03:07:56;20.40;99.90
32977;DHT22;72327;50.842;4.450;2023-09-12T03:10:22;20.40;99.90
32977;DHT22;72327;50.842;4.450;2023-09-12T03:12:47;20.40;99.90
32977;DHT22;72327;50.842;4.450;2023-09-12T03:15:13;20.50;99.90
32977;DHT22;72327;50.842;4.450;2023-09-12T03:17:39;20.60;99.90
32977;DHT22;72327;50.842;4.450;2023-09-12T03:20:05;20.60;99.90
32977;DHT22;72327;50.842;4.450;2023-09-12T03:22:34;20.70;99.90
32977;DHT22;72327;50.842;4.450;2023-09-12T03:25:03;20.70;99.90
32977;DHT22;72327;50.842;4.450;2023-09-12T03:27:29;20.70;99.90
32977;DHT22;72327;50.842;4.450;2023-09-12T03:29:55;20.80;99.90
32977;DHT22;72327;50.842;4.450;2023-09-12T03:32:20;20.80;99.90
32977;DHT22;72327;50.842;4.450;2023-09-12T03:34:46;20.80;99.90
32977;DHT22;72327;50.842;4.450;2023-09-12T03:37:12;20.80;99.90
32977;DHT22;72327;50.842;4.450;2023-09-12T03:39:38;20.80;99.90
32977;DHT22;72327;50.842;4.450;2023-09-12T03:42:03;20.80;99.90
32977;DHT22;72327;50.842;4.450;2023-09-12T03:44:29;20.80;99.90
32977;DHT22;72327;50.842;4.450;2023-09-12T03:46:55;20.90;99.90
32977;DHT22;72327;50.842;4.450;2023-09-12T03:49:22;20.80;99.90
32977;DHT22;72327;50.842;4.450;2023-09-12T03:51:48;20.80;99.90
32977;DHT22;72327;50.842;4.450;2023-09-12T03:54:13;20.70;99.90
32977;DHT22;72327;50.842;4.450;2023-09-12T03:56:39;20.70;99.90
32977;DHT22;72327;50.842;4.450;2023-09-12T03:59:04;20.60;99.90
32977;DHT22;72327;50.842;4.450;2023-09-12T04:01:30;20.60;99.90
32977;DHT22;72327;50.842;4.450;2023-09-12T04:03:56;20.70;99.90
32977;DHT22;72327;50.842;4.450;2023-09-12T04:06:21;20.60;99.90
32977;DHT22;72327;50.842;4.450;2023-09-12T04:08:47;20.60;99.90
32977;DHT22;72327;50.842;4.450;2023-09-12T04:11:12;20.50;99.90
32977;DHT22;72327;50.842;4.450;2023-09-12T04:13:38;20.60;99.90
32977;DHT22;72327;50.842;4.450;2023-09-12T04:16:04;20.40;99.90
32977;DHT22;72327;50.842;4.450;2023-09-12T04:18:29;20.40;99.90
32977;DHT22;72327;50.842;4.450;2023-09-12T04:20:55;20.40;99.90
32977;DHT22;72327;50.842;4.450;2023-09-12T04:23:24;20.40;99.90
32977;DHT22;72327;50.842;4.450;2023-09-12T04:25:49;20.40;99.90
32977;DHT22;72327;50.842;4.450;2023-09-12T04:28:15;20.40;99.90
32977;DHT22;72327;50.842;4.450;2023-09-12T04:30:41;20.40;99.90
32977;DHT22;72327;50.842;4.450;2023-09-12T04:33:06;20.30;99.90
32977;DHT22;72327;50.842;4.450;2023-09-12T04:35:35;20.30;99.90
32977;DHT22;72327;50.842;4.450;2023-09-12T04:38:01;20.30;99.90
32977;DHT22;72327;50.842;4.450;2023-09-12T04:40:28;20.30;99.90
32977;DHT22;72327;50.842;4.450;2023-09-12T04:42:53;20.30;99.90
32977;DHT22;72327;50.842;4.450;2023-09-12T04:45:19;20.30;99.90
32977;DHT22;72327;50.842;4.450;2023-09-12T04:47:45;20.20;99.90
32977;DHT22;72327;50.842;4.450;2023-09-12T04:50:10;20.30;99.90
32977;DHT22;72327;50.842;4.450;2023-09-12T04:52:37;20.30;99.90
32977;DHT22;72327;50.842;4.450;2023-09-12T04:55:03;20.20;99.90
32977;DHT22;72327;50.842;4.450;2023-09-12T04:57:29;20.20;99.90
32977;DHT22;72327;50.842;4.450;2023-09-12T04:59:56;20.20;99.90
32977;DHT22;72327;50.842;4.450;2023-09-12T05:02:24;20.20;99.90
32977;DHT22;72327;50.842;4.450;2023-09-12T05:04:51;20.20;99.90
32977;DHT22;72327;50.842;4.450;2023-09-12T05:07:17;20.10;99.90
32977;DHT22;72327;50.842;4.450;2023-09-12T05:09:42;20.10;99.90
32977;DHT22;72327;50.842;4.450;2023-09-12T05:12:08;20.10;99.90
32977;DHT22;72327;50.842;4.450;2023-09-12T05:14:34;20.00;99.90
32977;DHT22;72327;50.842;4.450;2023-09-12T05:16:59;20.00;99.90
32977;DHT22;72327;50.842;4.450;2023-09-12T05:19:27;19.90;99.90
32977;DHT22;72327;50.842;4.450;2023-09-12T05:21:53;19.80;99.90
32977;DHT22;72327;50.842;4.450;2023-09-12T05:24:18;19.80;99.90
32977;DHT22;72327;50.842;4.450;2023-09-12T05:26:44;19.70;99.90
32977;DHT22;72327;50.842;4.450;2023-09-12T05:29:09;19.60;99.90
32977;DHT22;72327;50.842;4.450;2023-09-12T05:31:35;19.60;99.90
32977;DHT22;72327;50.842;4.450;2023-09-12T05:34:01;19.50;99.90
32977;DHT22;72327;50.842;4.450;2023-09-12T05:36:26;19.50;99.90
32977;DHT22;72327;50.842;4.450;2023-09-12T05:38:52;19.50;99.90
32977;DHT22;72327;50.842;4.450;2023-09-12T05:41:18;19.50;99.90
32977;DHT22;72327;50.842;4.450;2023-09-12T05:43:43;19.50;99.90
32977;DHT22;72327;50.842;4.450;2023-09-12T05:46:09;19.40;99.90
32977;DHT22;72327;50.842;4.450;2023-09-12T05:48:34;19.50;99.90
32977;DHT22;72327;50.842;4.450;2023-09-12T05:51:00;19.40;99.90
32977;DHT22;72327;50.842;4.450;2023-09-12T05:53:26;19.40;99.90
32977;DHT22;72327;50.842;4.450;2023-09-12T05:55:51;19.40;99.90
32977;DHT22;72327;50.842;4.450;2023-09-12T05:58:17;19.50;99.90
32977;DHT22;72327;50.842;4.450;2023-09-12T06:00:43;19.50;99.90
32977;DHT22;72327;50.842;4.450;2023-09-12T06:03:08;19.50;99.90
32977;DHT22;72327;50.842;4.450;2023-09-12T06:05:34;19.60;99.90
32977;DHT22;72327;50.842;4.450;2023-09-12T06:08:00;19.70;99.90
32977;DHT22;72327;50.842;4.450;2023-09-12T06:10:27;19.70;99.90
32977;DHT22;72327;50.842;4.450;2023-09-12T06:12:52;19.70;99.90
32977;DHT22;72327;50.842;4.450;2023-09-12T06:15:18;19.80;99.90
32977;DHT22;72327;50.842;4.450;2023-09-12T06:17:44;19.90;99.90
32977;DHT22;72327;50.842;4.450;2023-09-12T06:20:10;20.00;99.90
32977;DHT22;72327;50.842;4.450;2023-09-12T06:22:35;20.10;99.90
32977;DHT22;72327;50.842;4.450;2023-09-12T06:25:01;20.10;99.90
32977;DHT22;72327;50.842;4.450;2023-09-12T06:27:27;20.10;99.90
32977;DHT22;72327;50.842;4.450;2023-09-12T06:29:52;20.20;99.90
32977;DHT22;72327;50.842;4.450;2023-09-12T06:32:18;20.30;99.90
32977;DHT22;72327;50.842;4.450;2023-09-12T06:34:44;20.20;99.90
32977;DHT22;72327;50.842;4.450;2023-09-12T06:37:11;20.40;99.90
32977;DHT22;72327;50.842;4.450;2023-09-12T06:39:37;20.70;99.90
32977;DHT22;72327;50.842;4.450;2023-09-12T06:42:02;21.00;99.90
32977;DHT22;72327;50.842;4.450;2023-09-12T06:44:28;21.40;99.90
32977;DHT22;72327;50.842;4.450;2023-09-12T06:46:54;21.80;99.90
32977;DHT22;72327;50.842;4.450;2023-09-12T06:49:19;22.20;99.90
32977;DHT22;72327;50.842;4.450;2023-09-12T06:51:45;22.50;99.90
32977;DHT22;72327;50.842;4.450;2023-09-12T06:54:10;22.80;99.90
32977;DHT22;72327;50.842;4.450;2023-09-12T06:56:37;23.10;99.90
32977;DHT22;72327;50.842;4.450;2023-09-12T06:59:04;23.40;99.90
32977;DHT22;72327;50.842;4.450;2023-09-12T07:01:30;23.50;99.90
32977;DHT22;72327;50.842;4.450;2023-09-12T07:03:56;23.60;99.90
32977;DHT22;72327;50.842;4.450;2023-09-12T07:06:22;23.70;99.90
32977;DHT22;72327;50.842;4.450;2023-09-12T07:08:48;23.90;99.90
32977;DHT22;72327;50.842;4.450;2023-09-12T07:11:14;24.10;99.90
32977;DHT22;72327;50.842;4.450;2023-09-12T07:13:40;24.10;99.90
32977;DHT22;72327;50.842;4.450;2023-09-12T07:16:05;24.10;99.90
32977;DHT22;72327;50.842;4.450;2023-09-12T07:18:31;24.10;99.90
32977;DHT22;72327;50.842;4.450;2023-09-12T07:21:02;24.10;99.90
32977;DHT22;72327;50.842;4.450;2023-09-12T07:23:29;24.10;99.90
32977;DHT22;72327;50.842;4.450;2023-09-12T07:25:57;24.10;99.90
32977;DHT22;72327;50.842;4.450;2023-09-12T07:28:27;24.10;99.90
32977;DHT22;72327;50.842;4.450;2023-09-12T07:30:54;24.20;99.90
32977;DHT22;72327;50.842;4.450;2023-09-12T07:33:19;24.40;99.90
32977;DHT22;72327;50.842;4.450;2023-09-12T07:35:47;24.80;99.90
32977;DHT22;72327;50.842;4.450;2023-09-12T07:38:13;25.10;99.90
32977;DHT22;72327;50.842;4.450;2023-09-12T07:40:42;25.30;99.90
32977;DHT22;72327;50.842;4.450;2023-09-12T07:43:08;25.40;99.90
32977;DHT22;72327;50.842;4.450;2023-09-12T07:45:35;25.50;99.90
32977;DHT22;72327;50.842;4.450;2023-09-12T07:48:05;25.50;99.90
32977;DHT22;72327;50.842;4.450;2023-09-12T07:50:31;25.40;99.90
32977;DHT22;72327;50.842;4.450;2023-09-12T07:52:57;25.10;99.90
32977;DHT22;72327;50.842;4.450;2023-09-12T07:55:22;25.10;99.90
32977;DHT22;72327;50.842;4.450;2023-09-12T07:57:48;25.20;99.90
32977;DHT22;72327;50.842;4.450;2023-09-12T08:00:14;25.50;99.90
32977;DHT22;72327;50.842;4.450;2023-09-12T08:02:39;25.80;99.90
32977;DHT22;72327;50.842;4.450;2023-09-12T08:05:05;25.90;99.90
32977;DHT22;72327;50.842;4.450;2023-09-12T08:07:31;26.20;99.90
32977;DHT22;72327;50.842;4.450;2023-09-12T08:09:58;26.30;99.90
32977;DHT22;72327;50.842;4.450;2023-09-12T08:12:25;26.50;99.90
32977;DHT22;72327;50.842;4.450;2023-09-12T08:14:52;26.50;99.90
32977;DHT22;72327;50.842;4.450;2023-09-12T08:17:17;26.40;99.90
32977;DHT22;72327;50.842;4.450;2023-09-12T08:19:43;26.10;99.90
32977;DHT22;72327;50.842;4.450;2023-09-12T08:22:10;25.80;99.90
32977;DHT22;72327;50.842;4.450;2023-09-12T08:24:36;25.60;99.90
32977;DHT22;72327;50.842;4.450;2023-09-12T08:27:03;25.20;99.90
32977;DHT22;72327;50.842;4.450;2023-09-12T08:29:34;25.10;99.90
32977;DHT22;72327;50.842;4.450;2023-09-12T08:32:01;25.00;99.90
32977;DHT22;72327;50.842;4.450;2023-09-12T08:34:30;24.90;99.90
32977;DHT22;72327;50.842;4.450;2023-09-12T08:36:56;24.90;99.90
32977;DHT22;72327;50.842;4.450;2023-09-12T08:39:25;24.80;99.90
32977;DHT22;72327;50.842;4.450;2023-09-12T08:42:26;24.80;99.90
32977;DHT22;72327;50.842;4.450;2023-09-12T08:45:37;24.80;99.90
32977;DHT22;72327;50.842;4.450;2023-09-12T08:51:41;24.80;99.90
32977;DHT22;72327;50.842;4.450;2023-09-12T08:54:13;24.70;99.90
32977;DHT22;72327;50.842;4.450;2023-09-12T08:56:40;24.70;99.90
32977;DHT22;72327;50.842;4.450;2023-09-12T08:59:22;24.50;99.90
32977;DHT22;72327;50.842;4.450;2023-09-12T09:01:48;24.50;99.90
32977;DHT22;72327;50.842;4.450;2023-09-12T09:04:25;24.70;99.90
32977;DHT22;72327;50.842;4.450;2023-09-12T09:06:54;24.30;99.90
32977;DHT22;72327;50.842;4.450;2023-09-12T09:09:21;23.90;99.90
32977;DHT22;72327;50.842;4.450;2023-09-12T09:11:47;24.00;99.90
32977;DHT22;72327;50.842;4.450;2023-09-12T09:14:14;24.50;99.90
32977;DHT22;72327;50.842;4.450;2023-09-12T09:23:19;25.90;99.90
32977;DHT22;72327;50.842;4.450;2023-09-12T09:25:52;26.00;99.90
32977;DHT22;72327;50.842;4.450;2023-09-12T09:31:42;26.50;99.90
32977;DHT22;72327;50.842;4.450;2023-09-12T09:34:19;26.40;99.90
32977;DHT22;72327;50.842;4.450;2023-09-12T09:36:48;26.50;99.90
32977;DHT22;72327;50.842;4.450;2023-09-12T09:39:15;26.70;99.90
32977;DHT22;72327;50.842;4.450;2023-09-12T09:41:41;26.90;99.90
32977;DHT22;72327;50.842;4.450;2023-09-12T09:44:08;27.00;99.90
32977;DHT22;72327;50.842;4.450;2023-09-12T09:46:38;27.10;99.90
32977;DHT22;72327;50.842;4.450;2023-09-12T09:49:03;27.10;99.90
32977;DHT22;72327;50.842;4.450;2023-09-12T09:51:30;27.10;99.90
32977;DHT22;72327;50.842;4.450;2023-09-12T09:53:57;27.20;99.90
32977;DHT22;72327;50.842;4.450;2023-09-12T09:56:24;27.40;99.90
32977;DHT22;72327;50.842;4.450;2023-09-12T09:58:53;27.70;99.90
32977;DHT22;72327;50.842;4.450;2023-09-12T10:01:20;27.70;99.90
32977;DHT22;72327;50.842;4.450;2023-09-12T10:03:47;27.80;99.90
32977;DHT22;72327;50.842;4.450;2023-09-12T10:06:15;27.90;99.90
32977;DHT22;72327;50.842;4.450;2023-09-12T10:08:43;27.80;99.90
32977;DHT22;72327;50.842;4.450;2023-09-12T10:11:10;27.50;99.90
32977;DHT22;72327;50.842;4.450;2023-09-12T10:13:38;27.00;99.90
32977;DHT22;72327;50.842;4.450;2023-09-12T10:16:07;26.70;99.90
32977;DHT22;72327;50.842;4.450;2023-09-12T10:18:38;26.40;99.90
32977;DHT22;72327;50.842;4.450;2023-09-12T10:21:11;26.70;99.90
32977;DHT22;72327;50.842;4.450;2023-09-12T10:23:44;27.00;99.90
32977;DHT22;72327;50.842;4.450;2023-09-12T10:26:14;26.70;99.90
32977;DHT22;72327;50.842;4.450;2023-09-12T10:28:41;26.40;99.90
32977;DHT22;72327;50.842;4.450;2023-09-12T10:31:08;26.50;99.90
32977;DHT22;72327;50.842;4.450;2023-09-12T10:33:34;26.70;99.90
32977;DHT22;72327;50.842;4.450;2023-09-12T10:36:03;27.30;99.90
32977;DHT22;72327;50.842;4.450;2023-09-12T10:38:30;27.70;99.90
32977;DHT22;72327;50.842;4.450;2023-09-12T10:41:00;28.10;99.90
32977;DHT22;72327;50.842;4.450;2023-09-12T10:43:26;28.10;99.90
32977;DHT22;72327;50.842;4.450;2023-09-12T10:45:53;28.20;99.90
32977;DHT22;72327;50.842;4.450;2023-09-12T10:48:19;28.00;99.90
32977;DHT22;72327;50.842;4.450;2023-09-12T10:50:45;27.80;99.90
32977;DHT22;72327;50.842;4.450;2023-09-12T10:53:12;27.50;99.90
32977;DHT22;72327;50.842;4.450;2023-09-12T10:55:39;28.00;99.90
32977;DHT22;72327;50.842;4.450;2023-09-12T10:58:07;28.30;99.90
32977;DHT22;72327;50.842;4.450;2023-09-12T11:00:33;28.20;99.90
32977;DHT22;72327;50.842;4.450;2023-09-12T11:05:53;28.10;99.90
32977;DHT22;72327;50.842;4.450;2023-09-12T11:08:23;27.80;99.90
32977;DHT22;72327;50.842;4.450;2023-09-12T11:12:35;27.60;99.90
32977;DHT22;72327;50.842;4.450;2023-09-12T11:15:05;27.50;99.90
32977;DHT22;72327;50.842;4.450;2023-09-12T11:17:37;27.20;99.90
32977;DHT22;72327;50.842;4.450;2023-09-12T11:20:03;26.80;99.90
32977;DHT22;72327;50.842;4.450;2023-09-12T11:22:43;26.40;99.90
32977;DHT22;72327;50.842;4.450;2023-09-12T11:25:23;26.70;99.90
32977;DHT22;72327;50.842;4.450;2023-09-12T11:30:19;26.60;99.90
32977;DHT22;72327;50.842;4.450;2023-09-12T11:32:49;26.10;99.90
32977;DHT22;72327;50.842;4.450;2023-09-12T11:35:16;26.10;99.90
32977;DHT22;72327;50.842;4.450;2023-09-12T11:37:49;26.10;99.90
32977;DHT22;72327;50.842;4.450;2023-09-12T11:40:17;26.30;99.90
32977;DHT22;72327;50.842;4.450;2023-09-12T11:42:43;26.10;99.90
32977;DHT22;72327;50.842;4.450;2023-09-12T11:45:10;26.30;99.90
32977;DHT22;72327;50.842;4.450;2023-09-12T11:47:42;26.80;99.90
32977;DHT22;72327;50.842;4.450;2023-09-12T11:50:09;27.40;99.90
32977;DHT22;72327;50.842;4.450;2023-09-12T11:52:57;27.80;99.90
32977;DHT22;72327;50.842;4.450;2023-09-12T11:55:30;28.00;98.90
32977;DHT22;72327;50.842;4.450;2023-09-12T11:57:57;28.30;99.30
32977;DHT22;72327;50.842;4.450;2023-09-12T12:00:23;28.60;99.10
32977;DHT22;72327;50.842;4.450;2023-09-12T12:02:52;29.00;98.40
32977;DHT22;72327;50.842;4.450;2023-09-12T12:05:20;29.10;97.50
32977;DHT22;72327;50.842;4.450;2023-09-12T12:07:56;29.40;97.80
32977;DHT22;72327;50.842;4.450;2023-09-12T12:10:23;29.60;96.90
32977;DHT22;72327;50.842;4.450;2023-09-12T12:12:53;29.80;97.00
32977;DHT22;72327;50.842;4.450;2023-09-12T12:15:18;29.60;96.60
32977;DHT22;72327;50.842;4.450;2023-09-12T12:17:44;29.10;97.30
32977;DHT22;72327;50.842;4.450;2023-09-12T12:20:10;29.10;97.50
32977;DHT22;72327;50.842;4.450;2023-09-12T12:22:40;28.40;97.60
32977;DHT22;72327;50.842;4.450;2023-09-12T12:25:10;28.10;97.70
32977;DHT22;72327;50.842;4.450;2023-09-12T12:27:38;28.00;98.40
32977;DHT22;72327;50.842;4.450;2023-09-12T12:30:07;27.70;98.50
32977;DHT22;72327;50.842;4.450;2023-09-12T12:32:33;27.40;98.10
32977;DHT22;72327;50.842;4.450;2023-09-12T12:34:58;27.60;98.00
32977;DHT22;72327;50.842;4.450;2023-09-12T12:37:29;27.70;98.20
32977;DHT22;72327;50.842;4.450;2023-09-12T12:39:59;27.60;98.10
32977;DHT22;72327;50.842;4.450;2023-09-12T12:42:32;27.20;98.80
32977;DHT22;72327;50.842;4.450;2023-09-12T12:44:58;27.30;99.30
32977;DHT22;72327;50.842;4.450;2023-09-12T12:47:23;27.40;99.20
32977;DHT22;72327;50.842;4.450;2023-09-12T12:49:52;27.20;99.30
32977;DHT22;72327;50.842;4.450;2023-09-12T12:52:24;27.00;99.10
32977;DHT22;72327;50.842;4.450;2023-09-12T12:54:51;27.20;99.20
32977;DHT22;72327;50.842;4.450;2023-09-12T12:57:21;27.00;99.60
32977;DHT22;72327;50.842;4.450;2023-09-12T12:59:50;27.20;99.70
32977;DHT22;72327;50.842;4.450;2023-09-12T13:02:16;27.30;99.30
32977;DHT22;72327;50.842;4.450;2023-09-12T13:04:43;27.30;99.30
32977;DHT22;72327;50.842;4.450;2023-09-12T13:07:09;27.40;99.30
32977;DHT22;72327;50.842;4.450;2023-09-12T13:09:36;27.50;99.20
32977;DHT22;72327;50.842;4.450;2023-09-12T13:12:03;27.70;99.10
32977;DHT22;72327;50.842;4.450;2023-09-12T13:14:29;27.80;99.20
32977;DHT22;72327;50.842;4.450;2023-09-12T13:16:59;27.20;99.40
32977;DHT22;72327;50.842;4.450;2023-09-12T13:19:26;26.70;99.90
32977;DHT22;72327;50.842;4.450;2023-09-12T13:21:52;26.50;99.90
32977;DHT22;72327;50.842;4.450;2023-09-12T13:24:17;26.60;99.90
32977;DHT22;72327;50.842;4.450;2023-09-12T13:26:43;26.40;99.90
32977;DHT22;72327;50.842;4.450;2023-09-12T13:29:09;26.10;99.90
32977;DHT22;72327;50.842;4.450;2023-09-12T13:31:35;26.00;99.90
32977;DHT22;72327;50.842;4.450;2023-09-12T13:34:01;25.80;99.90
32977;DHT22;72327;50.842;4.450;2023-09-12T13:36:28;25.70;99.90
32977;DHT22;72327;50.842;4.450;2023-09-12T13:38:53;25.50;99.90
32977;DHT22;72327;50.842;4.450;2023-09-12T13:41:19;25.30;99.90
32977;DHT22;72327;50.842;4.450;2023-09-12T13:43:48;25.40;99.90
32977;DHT22;72327;50.842;4.450;2023-09-12T13:46:14;25.40;99.90
32977;DHT22;72327;50.842;4.450;2023-09-12T13:48:41;25.40;99.90
32977;DHT22;72327;50.842;4.450;2023-09-12T13:51:07;25.60;99.90
32977;DHT22;72327;50.842;4.450;2023-09-12T13:53:33;25.60;99.90
32977;DHT22;72327;50.842;4.450;2023-09-12T13:55:59;25.30;99.90
32977;DHT22;72327;50.842;4.450;2023-09-12T13:58:26;25.40;99.90
32977;DHT22;72327;50.842;4.450;2023-09-12T14:00:52;25.60;99.90
32977;DHT22;72327;50.842;4.450;2023-09-12T14:03:17;25.60;99.90
32977;DHT22;72327;50.842;4.450;2023-09-12T14:05:43;25.60;99.90
32977;DHT22;72327;50.842;4.450;2023-09-12T14:08:09;26.00;99.90
32977;DHT22;72327;50.842;4.450;2023-09-12T14:10:35;26.10;99.90
32977;DHT22;72327;50.842;4.450;2023-09-12T14:13:01;26.10;99.90
32977;DHT22;72327;50.842;4.450;2023-09-12T14:15:26;26.00;99.90
32977;DHT22;72327;50.842;4.450;2023-09-12T14:17:52;26.10;99.90
32977;DHT22;72327;50.842;4.450;2023-09-12T14:20:18;25.90;99.90
32977;DHT22;72327;50.842;4.450;2023-09-12T14:22:44;25.70;99.90
32977;DHT22;72327;50.842;4.450;2023-09-12T14:25:10;25.60;99.90
32977;DHT22;72327;50.842;4.450;2023-09-12T14:27:42;25.50;99.90
32977;DHT22;72327;50.842;4.450;2023-09-12T14:30:09;25.30;99.90
32977;DHT22;72327;50.842;4.450;2023-09-12T14:32:36;25.50;99.90
32977;DHT22;72327;50.842;4.450;2023-09-12T14:35:10;25.40;99.90
32977;DHT22;72327;50.842;4.450;2023-09-12T14:37:40;25.50;99.90
32977;DHT22;72327;50.842;4.450;2023-09-12T14:40:14;25.50;99.90
32977;DHT22;72327;50.842;4.450;2023-09-12T14:42:42;25.50;99.90
32977;DHT22;72327;50.842;4.450;2023-09-12T14:45:09;25.60;99.90
32977;DHT22;72327;50.842;4.450;2023-09-12T14:47:44;25.40;99.90
32977;DHT22;72327;50.842;4.450;2023-09-12T14:50:14;25.20;99.90
32977;DHT22;72327;50.842;4.450;2023-09-12T14:52:40;25.10;99.90
32977;DHT22;72327;50.842;4.450;2023-09-12T14:55:07;25.40;99.90
32977;DHT22;72327;50.842;4.450;2023-09-12T14:57:34;25.20;99.90
32977;DHT22;72327;50.842;4.450;2023-09-12T15:00:00;25.10;99.90
32977;DHT22;72327;50.842;4.450;2023-09-12T15:02:26;25.00;99.90
32977;DHT22;72327;50.842;4.450;2023-09-12T15:04:58;25.10;99.90
32977;DHT22;72327;50.842;4.450;2023-09-12T15:07:24;25.00;99.90
32977;DHT22;72327;50.842;4.450;2023-09-12T15:09:50;24.90;99.90
32977;DHT22;72327;50.842;4.450;2023-09-12T15:12:15;25.00;99.90
32977;DHT22;72327;50.842;4.450;2023-09-12T15:14:41;24.80;99.90
32977;DHT22;72327;50.842;4.450;2023-09-12T15:17:07;24.60;99.90
32977;DHT22;72327;50.842;4.450;2023-09-12T15:19:33;24.50;99.90
32977;DHT22;72327;50.842;4.450;2023-09-12T15:21:58;24.60;99.90
32977;DHT22;72327;50.842;4.450;2023-09-12T15:24:24;24.40;99.90
32977;DHT22;72327;50.842;4.450;2023-09-12T15:26:49;24.40;99.90
32977;DHT22;72327;50.842;4.450;2023-09-12T15:29:15;24.40;99.90
32977;DHT22;72327;50.842;4.450;2023-09-12T15:31:41;24.40;99.90
32977;DHT22;72327;50.842;4.450;2023-09-12T15:34:06;24.40;99.90
32977;DHT22;72327;50.842;4.450;2023-09-12T15:36:41;24.10;99.90
32977;DHT22;72327;50.842;4.450;2023-09-12T15:39:06;24.10;99.90
32977;DHT22;72327;50.842;4.450;2023-09-12T15:41:32;24.10;99.90
32977;DHT22;72327;50.842;4.450;2023-09-12T15:43:58;24.00;99.90
32977;DHT22;72327;50.842;4.450;2023-09-12T15:46:23;24.00;99.90
32977;DHT22;72327;50.842;4.450;2023-09-12T15:48:49;24.10;99.90
32977;DHT22;72327;50.842;4.450;2023-09-12T15:51:15;23.90;99.90
32977;DHT22;72327;50.842;4.450;2023-09-12T15:53:40;23.90;99.90